Time;durP1;ratioP1;P1;durP2;ratioP2;P2;SDS_P1;SDS_P2;PMS_P1;PMS_P2;Temp;Humidity;BMP_temperature;BMP_pressure;BME280_temperature;BME280_humidity;BME280_pressure;Samples;Min_cycle;Max_cycle;Signal;HPM_P1;HPM_P2
2021/12/08 00:01:25;;;;;;;1.50;1.40;;;2.80;98.10;;;;;;6170874;23;20406;-87
2021/12/08 00:03:51;;;;;;;4.53;2.00;;;3.00;96.90;;;;;;6169072;23;20403;-86
2021/12/08 00:06:17;;;;;;;1.80;1.33;;;3.10;97.60;;;;;;6168277;23;20396;-86
2021/12/08 00:08:49;;;;;;;1.60;1.43;;;3.20;98.40;;;;;;6166294;23;20394;-86
2021/12/08 00:14:04;;;;;;;2.03;1.43;;;3.00;98.00;;;;;;6194008;23;20433;-86
2021/12/08 00:16:29;;;;;;;1.97;1.60;;;3.10;97.30;;;;;;6168373;23;20395;-86
2021/12/08 00:19:27;;;;;;;3.90;2.27;;;3.10;97.00;;;;;;6190328;23;20386;-87
2021/12/08 00:21:53;;;;;;;5.70;2.10;;;3.10;96.80;;;;;;6165575;23;20391;-86
2021/12/08 00:24:18;;;;;;;2.50;1.73;;;3.20;96.80;;;;;;6168324;23;20501;-87
2021/12/08 00:26:46;;;;;;;3.70;2.13;;;3.30;97.70;;;;;;6167659;23;20664;-87
2021/12/08 00:29:15;;;;;;;1.87;1.53;;;3.30;97.10;;;;;;6167100;23;20658;-86
2021/12/08 00:31:45;;;;;;;1.30;1.20;;;3.40;97.60;;;;;;6168178;23;20403;-85
2021/12/08 00:34:10;;;;;;;1.60;1.43;;;3.40;96.90;;;;;;6168878;23;20396;-86
2021/12/08 00:36:47;;;;;;;2.97;2.03;;;3.50;96.70;;;;;;6170016;23;20860;-86
2021/12/08 00:39:13;;;;;;;3.27;1.90;;;3.40;97.60;;;;;;6168126;23;20561;-86
2021/12/08 00:41:42;;;;;;;1.80;1.40;;;3.30;98.70;;;;;;6170132;23;20402;-86
2021/12/08 00:44:30;;;;;;;1.10;1.10;;;3.10;99.90;;;;;;6199141;23;20699;-87
2021/12/08 00:46:58;;;;;;;4.27;1.77;;;3.10;99.90;;;;;;6166002;23;20397;-86
2021/12/08 00:49:27;;;;;;;1.37;1.27;;;3.20;99.90;;;;;;6168303;23;20810;-87
2021/12/08 00:51:56;;;;;;;2.20;1.40;;;3.00;99.90;;;;;;6171426;23;20395;-87
2021/12/08 00:54:21;;;;;;;1.50;1.40;;;3.00;99.90;;;;;;6169417;23;20393;-87
2021/12/08 00:56:47;;;;;;;1.77;1.43;;;2.90;99.90;;;;;;6170109;23;20421;-87
2021/12/08 00:59:13;;;;;;;3.77;1.40;;;2.90;99.90;;;;;;6171057;23;20168;-87
2021/12/08 01:01:38;;;;;;;1.63;1.53;;;2.90;99.90;;;;;;6170993;23;20216;-87
2021/12/08 01:04:05;;;;;;;1.67;1.57;;;2.90;99.90;;;;;;6172301;23;20168;-87
2021/12/08 01:06:31;;;;;;;1.23;1.23;;;2.80;99.90;;;;;;6170385;23;20167;-87
2021/12/08 01:08:57;;;;;;;1.40;1.30;;;2.70;99.90;;;;;;6170900;23;20399;-87
2021/12/08 01:11:23;;;;;;;2.07;1.40;;;2.80;99.90;;;;;;6170401;23;20658;-87
2021/12/08 01:13:49;;;;;;;3.17;1.87;;;2.80;99.90;;;;;;6145465;23;20194;-87
2021/12/08 01:16:17;;;;;;;2.00;1.60;;;2.80;99.90;;;;;;6168991;23;20429;-87
2021/12/08 01:18:42;;;;;;;1.57;1.43;;;2.90;99.90;;;;;;6169510;23;20395;-87
2021/12/08 01:21:10;;;;;;;1.40;1.03;;;2.90;99.90;;;;;;6170105;23;20762;-87
2021/12/08 01:23:37;;;;;;;1.40;1.30;;;3.00;99.90;;;;;;6167258;23;20199;-87
2021/12/08 01:26:04;;;;;;;2.27;1.50;;;2.90;99.90;;;;;;6170651;23;20856;-87
2021/12/08 01:28:30;;;;;;;2.40;1.30;;;2.80;99.90;;;;;;6169827;23;20399;-87
2021/12/08 01:30:56;;;;;;;2.80;1.50;;;2.80;99.90;;;;;;6169677;23;20797;-86
2021/12/08 01:33:24;;;;;;;3.13;1.80;;;2.70;99.90;;;;;;6170958;23;20765;-87
2021/12/08 01:35:50;;;;;;;1.40;1.30;;;2.80;99.90;;;;;;6171346;23;20391;-87
2021/12/08 01:38:17;;;;;;;2.47;1.50;;;2.80;99.90;;;;;;6172527;23;20413;-87
2021/12/08 01:40:43;;;;;;;1.93;1.73;;;2.70;99.90;;;;;;6173624;23;20391;-87
2021/12/08 01:43:23;;;;;;;2.80;2.17;;;2.70;99.90;;;;;;6172746;23;20395;-87
2021/12/08 01:46:00;;;;;;;2.97;1.70;;;2.60;99.90;;;;;;6194773;23;20386;-87
2021/12/08 01:48:29;;;;;;;3.27;1.70;;;2.60;99.90;;;;;;6168649;23;20420;-87
2021/12/08 01:51:00;;;;;;;3.67;2.90;;;2.50;99.90;;;;;;6175300;23;20449;-88
2021/12/08 01:53:26;;;;;;;2.93;2.53;;;2.50;99.90;;;;;;6175754;23;20470;-87
2021/12/08 01:55:52;;;;;;;3.83;1.57;;;2.60;99.90;;;;;;6169983;23;20476;-87
2021/12/08 01:58:18;;;;;;;3.40;1.90;;;2.50;99.90;;;;;;6170179;23;20391;-87
2021/12/08 02:01:03;;;;;;;5.37;1.60;;;2.30;99.90;;;;;;6172923;23;20192;-87
2021/12/08 02:03:35;;;;;;;2.13;1.90;;;2.20;99.90;;;;;;6169593;23;20399;-86
2021/12/08 02:06:03;;;;;;;2.07;1.97;;;2.20;99.90;;;;;;6170584;23;20387;-87
2021/12/08 02:08:29;;;;;;;1.83;1.73;;;2.10;99.90;;;;;;6173098;23;20417;-87
2021/12/08 02:10:55;;;;;;;2.70;2.13;;;2.10;99.90;;;;;;6175494;23;20473;-87
2021/12/08 02:13:21;;;;;;;2.80;1.93;;;2.10;99.90;;;;;;6168490;23;20431;-87
2021/12/08 02:15:47;;;;;;;2.47;1.80;;;2.20;99.90;;;;;;6168522;23;20402;-87
2021/12/08 02:18:15;;;;;;;2.53;2.03;;;2.40;99.90;;;;;;6172340;23;20942;-87
2021/12/08 02:20:45;;;;;;;2.47;1.77;;;2.40;99.90;;;;;;6174466;23;20410;-87
2021/12/08 02:23:11;;;;;;;2.20;1.50;;;2.40;99.90;;;;;;6168932;23;20402;-87
2021/12/08 02:25:37;;;;;;;2.10;1.07;;;2.40;99.90;;;;;;6168625;23;20854;-87
2021/12/08 02:28:08;;;;;;;1.20;1.00;;;2.40;99.90;;;;;;6172769;23;20386;-87
2021/12/08 02:30:40;;;;;;;1.70;1.60;;;2.40;99.90;;;;;;6169347;23;20448;-87
2021/12/08 02:47:28;;;;;;;2.40;1.40;;;2.50;99.90;;;;;;6197611;23;21017;-87
2021/12/08 02:49:58;;;;;;;1.30;1.20;;;2.50;99.90;;;;;;6169694;23;20434;-86
2021/12/08 02:52:24;;;;;;;0.97;0.90;;;2.50;99.90;;;;;;6173689;23;20885;-86
2021/12/08 02:55:05;;;;;;;1.20;1.10;;;2.50;99.90;;;;;;6172664;23;20390;-86
2021/12/08 02:57:31;;;;;;;1.93;1.30;;;2.60;99.90;;;;;;6174224;23;20168;-86
2021/12/08 02:59:56;;;;;;;1.33;1.23;;;2.50;99.90;;;;;;6179463;23;20402;-86
2021/12/08 03:02:22;;;;;;;2.00;1.90;;;2.40;99.90;;;;;;6168904;23;20302;-87
2021/12/08 03:04:48;;;;;;;2.53;1.63;;;2.40;99.90;;;;;;6173456;23;20487;-86
2021/12/08 03:07:14;;;;;;;1.77;1.27;;;2.40;99.90;;;;;;6169050;23;20502;-86
2021/12/08 03:09:40;;;;;;;2.00;1.80;;;2.40;99.90;;;;;;6168906;23;20238;-86
2021/12/08 03:12:07;;;;;;;1.77;1.67;;;2.40;99.90;;;;;;6168871;23;20726;-87
2021/12/08 03:14:33;;;;;;;2.73;2.43;;;2.40;99.90;;;;;;6168013;23;20418;-86
2021/12/08 03:17:03;;;;;;;2.50;2.30;;;2.40;99.90;;;;;;6170124;23;20402;-86
2021/12/08 03:19:30;;;;;;;2.37;2.17;;;2.40;99.90;;;;;;6171953;23;20226;-86
2021/12/08 03:21:56;;;;;;;4.23;2.73;;;2.30;99.90;;;;;;6172534;23;20870;-86
2021/12/08 03:24:34;;;;;;;4.30;2.50;;;2.30;99.90;;;;;;6173793;23;20493;-87
2021/12/08 03:32:16;;;;;;;4.03;2.27;;;2.30;99.90;;;;;;6196368;23;20789;-88
2021/12/08 03:34:52;;;;;;;2.40;2.27;;;2.30;99.90;;;;;;6168618;23;20403;-87
2021/12/08 03:37:37;;;;;;;2.50;2.20;;;2.40;99.90;;;;;;6166688;23;20412;-86
2021/12/08 03:40:15;;;;;;;2.80;2.07;;;2.40;99.90;;;;;;6167467;23;20476;-86
2021/12/08 03:42:41;;;;;;;1.80;1.70;;;2.50;99.90;;;;;;6169617;23;20458;-86
2021/12/08 03:45:15;;;;;;;2.53;2.33;;;2.40;99.90;;;;;;6166354;23;20545;-87
2021/12/08 03:47:43;;;;;;;2.87;2.67;;;2.50;99.90;;;;;;6161958;23;20441;-86
2021/12/08 03:50:13;;;;;;;5.43;3.07;;;2.40;99.90;;;;;;6168670;23;20785;-86
2021/12/08 03:52:40;;;;;;;3.70;2.77;;;2.40;99.90;;;;;;6166774;23;20401;-86
2021/12/08 03:55:15;;;;;;;5.00;2.97;;;2.50;99.90;;;;;;6167674;23;20502;-86
2021/12/08 03:57:40;;;;;;;3.50;3.20;;;2.70;99.90;;;;;;6166245;23;20940;-87
2021/12/08 04:00:15;;;;;;;3.60;2.63;;;2.70;99.90;;;;;;6172872;23;20461;-87
2021/12/08 04:02:41;;;;;;;2.60;2.40;;;2.80;99.90;;;;;;6169985;23;20763;-87
2021/12/08 04:05:07;;;;;;;3.20;2.97;;;2.90;99.90;;;;;;6166382;23;20407;-86
2021/12/08 04:07:42;;;;;;;3.03;2.40;;;3.00;99.90;;;;;;6169913;23;20401;-87
2021/12/08 04:10:15;;;;;;;3.10;2.30;;;3.10;99.90;;;;;;6170114;23;20438;-87
2021/12/08 04:12:42;;;;;;;2.60;2.40;;;3.00;99.90;;;;;;6170976;23;20390;-87
2021/12/08 04:15:09;;;;;;;3.13;2.20;;;3.10;99.90;;;;;;6177821;23;20414;-86
2021/12/08 04:17:39;;;;;;;3.47;2.67;;;3.00;99.90;;;;;;6168132;23;20387;-86
2021/12/08 04:20:17;;;;;;;3.93;2.80;;;3.10;99.90;;;;;;6171393;23;20403;-86
2021/12/08 04:22:46;;;;;;;3.07;2.80;;;3.10;99.90;;;;;;6171669;23;20398;-86
2021/12/08 04:25:16;;;;;;;4.33;3.47;;;3.00;99.90;;;;;;6171995;23;21244;-86
2021/12/08 04:27:44;;;;;;;3.47;3.13;;;2.90;99.90;;;;;;6170848;23;20445;-87
2021/12/08 04:30:17;;;;;;;4.80;3.77;;;2.90;99.90;;;;;;6168203;23;20852;-86
2021/12/08 04:32:43;;;;;;;3.97;3.43;;;2.90;99.90;;;;;;6170841;23;21182;-86
2021/12/08 04:35:10;;;;;;;4.43;3.43;;;2.80;99.90;;;;;;6171680;23;20395;-87
2021/12/08 04:37:45;;;;;;;4.80;4.00;;;2.80;99.90;;;;;;6167867;23;20401;-86
2021/12/08 04:40:24;;;;;;;4.70;3.93;;;2.70;99.90;;;;;;6169629;23;20740;-87
2021/12/08 04:45:34;;;;;;;7.63;4.40;;;2.70;99.90;;;;;;6196059;23;20739;-87
2021/12/08 04:48:20;;;;;;;4.73;4.23;;;2.60;99.90;;;;;;6169363;23;20694;-87
2021/12/08 04:54:03;;;;;;;5.70;5.20;;;2.70;99.90;;;;;;6197018;23;20445;-87
2021/12/08 05:07:50;;;;;;;5.80;5.30;;;2.80;99.90;;;;;;6195811;23;20401;-87
2021/12/08 05:10:26;;;;;;;9.63;6.20;;;2.80;99.90;;;;;;6170255;23;20492;-88
2021/12/08 05:12:52;;;;;;;8.13;6.67;;;2.70;99.90;;;;;;6169373;23;20399;-88
2021/12/08 05:15:32;;;;;;;6.60;5.90;;;2.70;99.90;;;;;;6170188;23;20411;-88
2021/12/08 05:18:00;;;;;;;7.70;6.40;;;2.70;99.90;;;;;;6170861;23;20394;-87
2021/12/08 05:21:03;;;;;;;6.40;5.67;;;2.70;99.90;;;;;;6170749;23;20828;-87
2021/12/08 05:23:42;;;;;;;6.23;5.63;;;2.70;99.90;;;;;;6168779;23;20390;-88
2021/12/08 05:26:38;;;;;;;6.97;5.93;;;2.70;99.90;;;;;;6168018;23;20785;-88
2021/12/08 05:29:35;;;;;;;7.23;6.40;;;2.80;99.90;;;;;;6165517;23;20885;-87
2021/12/08 05:32:04;;;;;;;6.40;5.80;;;2.80;99.90;;;;;;6162110;23;20448;-89
2021/12/08 05:34:31;;;;;;;6.37;5.77;;;2.90;99.90;;;;;;6167500;23;20832;-90
2021/12/08 05:36:57;;;;;;;8.43;5.60;;;2.90;99.90;;;;;;6169352;23;20391;-90
2021/12/08 05:39:28;;;;;;;5.80;5.03;;;3.00;99.90;;;;;;6170276;23;20405;-90
2021/12/08 05:42:00;;;;;;;6.03;5.17;;;2.90;99.90;;;;;;6169087;23;20404;-90
2021/12/08 05:44:29;;;;;;;6.10;5.37;;;3.00;99.90;;;;;;6167741;23;20407;-89
2021/12/08 05:47:01;;;;;;;7.83;6.07;;;3.00;99.90;;;;;;6169476;23;20410;-89
2021/12/08 05:49:27;;;;;;;6.60;5.50;;;3.10;99.90;;;;;;6198942;23;20480;-89
2021/12/08 05:51:55;;;;;;;6.03;5.43;;;3.10;99.90;;;;;;6179018;23;20437;-89
2021/12/08 05:54:25;;;;;;;7.00;5.63;;;3.10;99.90;;;;;;6179114;23;20391;-88
2021/12/08 05:56:54;;;;;;;5.93;5.33;;;3.10;99.90;;;;;;6170691;23;20403;-88
2021/12/08 05:59:23;;;;;;;6.33;5.70;;;3.10;99.90;;;;;;6172080;23;20962;-88
2021/12/08 06:01:59;;;;;;;6.27;5.57;;;3.20;99.90;;;;;;6172967;23;20406;-88
2021/12/08 06:05:20;;;;;;;5.97;5.37;;;3.20;99.90;;;;;;6171828;23;20409;-88
2021/12/08 06:08:10;;;;;;;8.30;6.57;;;3.30;99.90;;;;;;6172215;23;20398;-88
2021/12/08 06:10:37;;;;;;;15.50;10.07;;;3.30;99.90;;;;;;6171299;23;20446;-88
2021/12/08 06:13:07;;;;;;;17.23;12.60;;;3.30;99.90;;;;;;6179460;23;20397;-87
2021/12/08 06:15:34;;;;;;;14.23;10.07;;;3.20;99.90;;;;;;6171032;23;20402;-87
2021/12/08 06:18:00;;;;;;;17.87;14.60;;;3.20;99.90;;;;;;6170303;23;20398;-87
2021/12/08 06:20:27;;;;;;;14.20;12.47;;;3.20;99.90;;;;;;6169487;23;21015;-88
2021/12/08 06:22:56;;;;;;;12.20;8.80;;;3.10;99.90;;;;;;6168702;23;20217;-88
2021/12/08 06:25:24;;;;;;;9.77;8.43;;;3.10;99.90;;;;;;6171149;23;20421;-88
2021/12/08 06:27:56;;;;;;;10.30;8.80;;;3.00;99.90;;;;;;6167494;23;20800;-88
2021/12/08 06:30:26;;;;;;;11.00;9.23;;;3.00;99.90;;;;;;6192408;23;20558;-88
2021/12/08 06:33:00;;;;;;;10.50;9.40;;;3.00;99.90;;;;;;6192412;23;20391;-89
2021/12/08 06:35:36;;;;;;;8.83;7.93;;;3.20;99.90;;;;;;6168185;23;20404;-88
2021/12/08 06:38:05;;;;;;;7.80;6.57;;;3.30;99.90;;;;;;6169634;23;20740;-89
2021/12/08 06:40:37;;;;;;;8.07;7.27;;;3.30;99.90;;;;;;6167138;23;20410;-87
2021/12/08 06:43:07;;;;;;;8.27;7.33;;;3.40;99.90;;;;;;6171127;23;20383;-88
2021/12/08 06:45:36;;;;;;;8.70;7.80;;;3.40;99.90;;;;;;6176602;23;20449;-88
2021/12/08 06:48:07;;;;;;;8.90;8.00;;;3.40;99.90;;;;;;6194481;23;20799;-88
2021/12/08 06:50:46;;;;;;;9.53;8.50;;;3.30;99.90;;;;;;6168143;23;20548;-90
2021/12/08 06:53:12;;;;;;;12.13;10.37;;;3.40;99.90;;;;;;6170217;23;20384;-90
2021/12/08 06:56:12;;;;;;;12.50;10.70;;;3.40;99.90;;;;;;6170144;23;20395;-89
2021/12/08 06:58:48;;;;;;;11.00;7.57;;;3.50;99.90;;;;;;6167088;23;20393;-90
2021/12/08 07:01:27;;;;;;;9.20;8.30;;;3.60;99.90;;;;;;6166974;23;20391;-89
2021/12/08 07:10:23;;;;;;;20.90;13.90;;;3.50;99.90;;;;;;6132312;23;20781;-89
2021/12/08 07:12:59;;;;;;;15.87;13.33;;;3.50;99.90;;;;;;6167290;23;20444;-89
2021/12/08 07:15:57;;;;;;;13.07;10.17;;;3.50;99.90;;;;;;6177766;23;20751;-90
2021/12/08 07:18:39;;;;;;;10.10;9.10;;;3.40;99.90;;;;;;6176913;23;20477;-89
2021/12/08 07:21:10;;;;;;;9.80;8.80;;;3.50;99.90;;;;;;6168952;23;20392;-91
2021/12/08 07:23:46;;;;;;;10.10;8.57;;;3.50;99.90;;;;;;6141988;23;20395;-91
2021/12/08 07:26:19;;;;;;;9.57;8.43;;;3.60;99.90;;;;;;6165277;23;20460;-91
2021/12/08 07:28:47;;;;;;;10.50;8.40;;;3.60;99.90;;;;;;6166626;23;20490;-91
2021/12/08 07:31:27;;;;;;;10.73;8.83;;;3.60;99.90;;;;;;6141722;23;20453;-91
2021/12/08 07:33:54;;;;;;;8.47;7.67;;;3.60;99.90;;;;;;6142542;23;20392;-91
2021/12/08 07:36:29;;;;;;;10.27;8.80;;;3.50;99.90;;;;;;6143322;23;20407;-90
2021/12/08 07:38:58;;;;;;;9.30;8.43;;;3.60;99.90;;;;;;6172069;23;20415;-92
2021/12/08 07:44:53;;;;;;;11.30;10.10;;;3.70;99.90;;;;;;6176714;23;20756;-91
2021/12/08 07:47:45;;;;;;;15.00;12.37;;;3.70;99.90;;;;;;6169167;23;20391;-92
2021/12/08 07:50:21;;;;;;;13.73;12.00;;;3.60;99.90;;;;;;6194707;23;20839;-90
2021/12/08 07:52:50;;;;;;;8.93;8.03;;;3.70;99.90;;;;;;6193941;23;20404;-91
2021/12/08 07:55:27;;;;;;;11.40;10.10;;;3.70;99.90;;;;;;6169167;23;20449;-89
2021/12/08 07:57:55;;;;;;;9.90;9.00;;;3.80;99.90;;;;;;6169101;23;20530;-91
2021/12/08 08:00:27;;;;;;;8.10;7.40;;;3.70;99.90;;;;;;6167461;23;20761;-89
2021/12/08 08:02:53;;;;;;;7.63;6.90;;;3.80;99.90;;;;;;6169719;23;20387;-91
2021/12/08 08:05:22;;;;;;;8.00;7.20;;;3.80;99.90;;;;;;6169242;23;20486;-86
2021/12/08 08:07:49;;;;;;;9.80;7.53;;;3.80;99.90;;;;;;6171201;23;20709;-92
2021/12/08 08:10:16;;;;;;;10.10;7.60;;;3.80;99.90;;;;;;6180088;23;20472;-90
2021/12/08 08:12:47;;;;;;;9.43;8.43;;;3.70;99.90;;;;;;6171796;23;20997;-90
2021/12/08 08:15:20;;;;;;;10.87;9.47;;;3.70;99.90;;;;;;6168950;23;20453;-91
2021/12/08 08:17:50;;;;;;;10.17;8.20;;;3.70;99.90;;;;;;6173263;23;20740;-92
2021/12/08 08:20:25;;;;;;;10.13;9.00;;;3.70;99.90;;;;;;6202087;23;20430;-93
2021/12/08 08:22:53;;;;;;;9.23;7.60;;;3.70;99.90;;;;;;6177774;23;20748;-94
2021/12/08 08:25:23;;;;;;;9.07;7.70;;;3.80;99.90;;;;;;6178355;23;20434;-92
2021/12/08 08:27:50;;;;;;;9.37;6.93;;;3.90;99.90;;;;;;6173445;23;20407;-90
2021/12/08 08:30:34;;;;;;;7.10;6.47;;;3.90;99.90;;;;;;6175662;23;20865;-93
2021/12/08 08:33:00;;;;;;;9.47;8.30;;;4.00;99.90;;;;;;6176837;23;20408;-92
2021/12/08 08:35:35;;;;;;;9.23;8.03;;;4.00;99.90;;;;;;6176596;23;20404;-89
2021/12/08 08:38:05;;;;;;;7.60;6.90;;;4.00;99.90;;;;;;6170858;23;20488;-88
2021/12/08 08:40:40;;;;;;;7.23;6.50;;;3.90;99.90;;;;;;6175419;23;20406;-88
2021/12/08 08:43:08;;;;;;;14.13;10.20;;;3.90;99.90;;;;;;6179393;23;20396;-88
2021/12/08 08:45:47;;;;;;;13.30;10.30;;;3.80;99.90;;;;;;6180996;23;20710;-88
2021/12/08 08:48:22;;;;;;;11.47;10.00;;;3.70;99.90;;;;;;6183115;23;20387;-86
2021/12/08 08:51:00;;;;;;;10.10;9.10;;;3.80;99.90;;;;;;6181451;23;20556;-88
2021/12/08 08:53:31;;;;;;;12.20;8.73;;;3.70;99.90;;;;;;6178005;23;20867;-88
2021/12/08 08:56:10;;;;;;;10.53;9.43;;;3.70;99.90;;;;;;6178776;23;20503;-89
2021/12/08 08:58:43;;;;;;;10.27;9.20;;;3.80;99.90;;;;;;6178801;23;20897;-89
2021/12/08 09:01:18;;;;;;;8.33;7.53;;;3.90;99.90;;;;;;6176348;23;20416;-87
2021/12/08 09:03:51;;;;;;;12.00;8.90;;;3.90;99.90;;;;;;6177932;23;20713;-89
2021/12/08 09:06:27;;;;;;;9.90;8.90;;;4.00;99.90;;;;;;6169134;23;20416;-91
2021/12/08 09:08:53;;;;;;;10.07;9.10;;;4.10;99.90;;;;;;6176350;23;20388;-92
2021/12/08 09:11:24;;;;;;;10.47;8.70;;;4.00;99.90;;;;;;6179380;23;20450;-90
2021/12/08 09:13:59;;;;;;;9.43;8.53;;;4.00;99.90;;;;;;6176098;23;20492;-91
2021/12/08 09:16:34;;;;;;;8.00;7.20;;;4.00;99.90;;;;;;6175225;23;20410;-91
2021/12/08 09:19:07;;;;;;;8.30;7.50;;;4.20;99.90;;;;;;6172614;23;20400;-93
2021/12/08 09:21:37;;;;;;;10.00;9.00;;;4.20;99.90;;;;;;6167512;23;20408;-89
2021/12/08 09:24:38;;;;;;;7.70;7.10;;;4.20;99.90;;;;;;6165891;23;20401;-90
2021/12/08 09:27:09;;;;;;;8.17;7.33;;;4.10;99.90;;;;;;6142802;23;20435;-95
2021/12/08 09:29:44;;;;;;;8.53;7.63;;;3.90;99.90;;;;;;6165505;23;20432;-90
2021/12/08 09:32:26;;;;;;;9.07;8.23;;;3.90;99.90;;;;;;6167371;23;20887;-89
2021/12/08 09:34:57;;;;;;;11.17;9.13;;;4.00;99.90;;;;;;6163225;23;20895;-88
2021/12/08 09:37:38;;;;;;;8.90;8.03;;;4.00;99.90;;;;;;6167252;23;20465;-89
2021/12/08 09:40:13;;;;;;;8.77;7.90;;;4.00;99.90;;;;;;6167701;23;20798;-88
2021/12/08 09:42:48;;;;;;;7.33;6.70;;;4.10;99.90;;;;;;6168449;23;20807;-89
2021/12/08 09:45:40;;;;;;;8.30;7.40;;;4.10;99.90;;;;;;6176682;23;20875;-89
2021/12/08 09:48:08;;;;;;;9.70;7.40;;;4.10;99.90;;;;;;6151252;23;20408;-87
2021/12/08 09:50:36;;;;;;;9.03;7.30;;;4.10;99.90;;;;;;6165787;23;20895;-88
2021/12/08 09:53:02;;;;;;;8.53;7.37;;;4.10;99.90;;;;;;6167180;23;20783;-88
2021/12/08 09:55:28;;;;;;;7.53;6.80;;;4.20;99.90;;;;;;6170266;23;20413;-88
2021/12/08 09:57:54;;;;;;;10.27;8.30;;;4.20;99.90;;;;;;6175901;23;20442;-90
2021/12/08 10:00:33;;;;;;;10.80;8.40;;;4.30;99.90;;;;;;6175694;23;20241;-91
2021/12/08 10:03:05;;;;;;;9.43;7.50;;;4.20;99.90;;;;;;6173265;23;20435;-90
2021/12/08 10:05:36;;;;;;;6.50;5.90;;;4.20;99.90;;;;;;6177205;23;20478;-89
2021/12/08 10:08:04;;;;;;;7.60;6.63;;;4.20;99.90;;;;;;6175032;23;20396;-89
2021/12/08 10:10:31;;;;;;;9.10;6.20;;;4.30;99.90;;;;;;6171520;23;20442;-86
2021/12/08 10:12:57;;;;;;;7.70;6.27;;;4.30;99.90;;;;;;6176755;23;20736;-88
2021/12/08 10:15:25;;;;;;;5.73;5.20;;;4.30;99.90;;;;;;6178306;23;20420;-88
2021/12/08 10:17:57;;;;;;;11.60;10.47;;;4.30;99.90;;;;;;6178212;23;20641;-87
2021/12/08 10:20:30;;;;;;;9.20;7.50;;;4.30;99.90;;;;;;6175091;23;20490;-88
2021/12/08 10:23:08;;;;;;;6.03;5.43;;;4.30;99.90;;;;;;6169827;23;20404;-88
2021/12/08 10:25:40;;;;;;;6.50;5.90;;;4.50;99.90;;;;;;6176197;23;20407;-89
2021/12/08 10:28:10;;;;;;;7.07;6.37;;;4.50;99.90;;;;;;6172601;23;20418;-90
2021/12/08 10:30:52;;;;;;;6.57;5.87;;;4.60;99.90;;;;;;6171283;23;20447;-88
2021/12/08 10:34:04;;;;;;;5.30;4.80;;;4.60;99.90;;;;;;6173341;23;20732;-89
2021/12/08 10:36:45;;;;;;;8.43;6.90;;;4.70;99.90;;;;;;6175594;23;20428;-88
2021/12/08 10:39:36;;;;;;;8.87;5.83;;;4.70;99.90;;;;;;6175699;23;20463;-88
2021/12/08 10:42:05;;;;;;;11.17;9.30;;;4.70;99.90;;;;;;6169994;23;20434;-88
2021/12/08 10:44:36;;;;;;;6.93;6.23;;;4.70;99.90;;;;;;6174186;23;20475;-87
2021/12/08 10:47:03;;;;;;;9.00;7.40;;;4.70;99.90;;;;;;6168376;23;20474;-88
2021/12/08 10:54:45;;;;;;;5.60;5.10;;;4.70;99.90;;;;;;6193703;23;20392;-89
2021/12/08 10:57:45;;;;;;;6.30;5.70;;;4.70;99.90;;;;;;6168670;23;20396;-88
2021/12/08 11:00:11;;;;;;;4.90;4.40;;;4.80;99.90;;;;;;6106619;23;20532;-88
2021/12/08 11:02:49;;;;;;;4.60;4.00;;;4.80;99.90;;;;;;6169466;23;20404;-87
2021/12/08 11:05:23;;;;;;;5.37;4.87;;;4.90;99.90;;;;;;6165266;23;20432;-87
2021/12/08 11:08:23;;;;;;;4.80;4.30;;;5.00;99.90;;;;;;6166802;23;20414;-88
2021/12/08 11:11:10;;;;;;;6.07;5.47;;;5.00;99.90;;;;;;6195066;23;20916;-87
2021/12/08 11:13:47;;;;;;;5.70;5.20;;;5.10;99.90;;;;;;6170177;23;20469;-88
2021/12/08 11:16:19;;;;;;;6.40;4.50;;;5.00;99.90;;;;;;6171435;23;21506;-87
2021/12/08 11:18:48;;;;;;;5.77;5.27;;;5.00;99.90;;;;;;6169855;23;20407;-88
2021/12/08 11:21:30;;;;;;;8.57;6.27;;;4.80;99.90;;;;;;6168525;23;20940;-87
2021/12/08 11:23:57;;;;;;;7.17;6.43;;;4.70;99.90;;;;;;6166872;23;20435;-89
2021/12/08 11:26:26;;;;;;;7.50;6.77;;;4.80;99.90;;;;;;6167501;23;20420;-88
2021/12/08 11:29:00;;;;;;;7.60;6.80;;;4.70;99.90;;;;;;6164925;23;20780;-92
2021/12/08 11:31:48;;;;;;;7.20;6.50;;;4.80;99.90;;;;;;6196091;23;20433;-91
2021/12/08 11:34:27;;;;;;;8.03;7.30;;;4.80;99.90;;;;;;6170699;23;20478;-90
2021/12/08 11:36:59;;;;;;;6.73;6.00;;;4.70;99.90;;;;;;6166563;23;20406;-89
2021/12/08 11:39:40;;;;;;;6.97;6.27;;;4.80;99.90;;;;;;6167125;23;20704;-89
2021/12/08 11:42:23;;;;;;;7.17;6.47;;;4.80;99.90;;;;;;6168563;23;20763;-90
2021/12/08 11:44:54;;;;;;;6.27;5.67;;;4.70;99.90;;;;;;6166376;23;20401;-89
2021/12/08 11:47:33;;;;;;;6.57;5.97;;;4.70;99.90;;;;;;6165473;23;20471;-90
2021/12/08 11:50:07;;;;;;;8.83;5.60;;;4.80;99.90;;;;;;6167463;23;20476;-89
2021/12/08 11:52:33;;;;;;;6.13;5.53;;;4.90;99.90;;;;;;6168141;23;20403;-90
2021/12/08 11:55:03;;;;;;;5.17;4.70;;;4.90;99.90;;;;;;6169245;23;20450;-90
2021/12/08 11:58:05;;;;;;;;;;;;;;;;;;;;;
2021/12/08 12:00:37;;;;;;;5.50;5.10;;;5.00;99.90;;;;;;6194274;23;20440;-90
2021/12/08 12:03:10;;;;;;;5.67;5.17;;;5.00;99.90;;;;;;6168040;23;20399;-89
2021/12/08 12:05:49;;;;;;;5.33;4.83;;;4.90;99.90;;;;;;6167304;23;20405;-88
2021/12/08 12:08:19;;;;;;;4.67;4.27;;;4.90;99.90;;;;;;6167780;23;20428;-88
2021/12/08 12:10:47;;;;;;;4.17;3.77;;;4.90;99.90;;;;;;6169849;23;20629;-89
2021/12/08 12:13:13;;;;;;;4.30;3.90;;;4.90;99.90;;;;;;6169182;23;20424;-89
2021/12/08 12:15:50;;;;;;;3.90;3.60;;;4.90;99.90;;;;;;6170593;23;20893;-89
2021/12/08 12:18:31;;;;;;;8.93;4.87;;;4.90;99.90;;;;;;6170029;23;20250;-89
2021/12/08 12:21:30;;;;;;;4.50;3.93;;;4.90;99.90;;;;;;6198280;23;20400;-88
2021/12/08 12:24:33;;;;;;;5.60;4.77;;;5.00;99.90;;;;;;6166459;23;20514;-89
2021/12/08 12:27:22;;;;;;;5.87;4.93;;;5.10;99.90;;;;;;6162367;23;20421;-89
2021/12/08 12:30:10;;;;;;;5.80;5.30;;;5.20;99.90;;;;;;6162558;23;20446;-89
2021/12/08 12:32:51;;;;;;;8.03;5.57;;;5.20;99.90;;;;;;6162042;23;20406;-89
2021/12/08 12:35:28;;;;;;;5.40;4.90;;;5.10;99.90;;;;;;6200498;23;20474;-89
2021/12/08 12:38:13;;;;;;;6.20;4.80;;;5.00;99.90;;;;;;6172476;23;20433;-88
2021/12/08 12:40:45;;;;;;;6.73;5.83;;;4.90;99.90;;;;;;6145437;23;20646;-89
2021/12/08 12:43:38;;;;;;;5.60;5.20;;;4.90;99.90;;;;;;6169524;23;20481;-88
2021/12/08 12:46:14;;;;;;;4.43;4.03;;;4.80;99.90;;;;;;6170797;23;20456;-88
2021/12/08 12:48:42;;;;;;;5.27;4.50;;;4.80;99.90;;;;;;6164904;23;20394;-88
2021/12/08 12:51:10;;;;;;;5.97;4.50;;;4.90;99.90;;;;;;6169324;23;20456;-88
2021/12/08 12:53:41;;;;;;;7.07;4.63;;;4.90;99.90;;;;;;6170742;23;20398;-88
2021/12/08 12:56:13;;;;;;;6.53;5.93;;;5.00;99.90;;;;;;6169402;23;20485;-88
2021/12/08 12:58:45;;;;;;;9.93;7.50;;;5.10;99.90;;;;;;6170778;23;20473;-88
2021/12/08 13:01:15;;;;;;;8.10;7.30;;;5.10;99.90;;;;;;6169992;23;20477;-89
2021/12/08 13:03:48;;;;;;;8.07;7.27;;;5.10;99.90;;;;;;6169927;23;20524;-88
2021/12/08 13:06:35;;;;;;;7.30;6.60;;;5.20;99.90;;;;;;6169940;23;20392;-88
2021/12/08 13:09:01;;;;;;;8.13;7.33;;;5.10;99.90;;;;;;6110120;23;20409;-90
2021/12/08 13:11:58;;;;;;;7.30;6.60;;;5.00;99.90;;;;;;6195956;23;20839;-88
2021/12/08 13:14:30;;;;;;;8.97;6.90;;;5.00;99.90;;;;;;6168325;23;20165;-89
2021/12/08 13:17:09;;;;;;;7.70;6.90;;;4.90;99.90;;;;;;6170488;23;20744;-88
2021/12/08 13:19:43;;;;;;;7.17;6.47;;;4.80;99.90;;;;;;6171010;23;20812;-87
2021/12/08 13:22:29;;;;;;;7.40;6.70;;;4.90;99.90;;;;;;6172286;23;20398;-88
2021/12/08 13:24:54;;;;;;;6.83;6.20;;;4.90;99.90;;;;;;6170400;23;20401;-88
2021/12/08 13:27:28;;;;;;;8.33;6.50;;;4.90;99.90;;;;;;6172916;23;20387;-88
2021/12/08 13:30:10;;;;;;;7.63;6.93;;;4.90;99.90;;;;;;6170474;23;20373;-87
2021/12/08 13:32:46;;;;;;;7.00;6.30;;;4.90;99.90;;;;;;6171259;23;20978;-86
2021/12/08 13:36:07;;;;;;;6.20;5.70;;;5.00;99.90;;;;;;6198945;23;20412;-86
2021/12/08 13:38:42;;;;;;;7.60;6.90;;;4.90;99.90;;;;;;6171470;23;20853;-87
2021/12/08 13:41:14;;;;;;;7.90;7.10;;;5.00;99.90;;;;;;6171836;23;20842;-87
2021/12/08 13:43:46;;;;;;;8.63;7.83;;;5.00;99.90;;;;;;6169414;23;20471;-87
2021/12/08 13:46:39;;;;;;;9.90;8.67;;;5.00;99.90;;;;;;6160862;23;20487;-88
2021/12/08 13:49:18;;;;;;;10.33;9.33;;;5.00;99.90;;;;;;6161990;23;20402;-87
2021/12/08 13:51:58;;;;;;;8.67;7.80;;;4.90;99.90;;;;;;6161791;23;20422;-89
2021/12/08 13:54:37;;;;;;;10.17;9.23;;;4.90;99.90;;;;;;6169074;23;20424;-87
2021/12/08 13:57:24;;;;;;;10.57;9.57;;;5.00;99.90;;;;;;6173080;23;20485;-86
2021/12/08 13:59:57;;;;;;;11.50;9.50;;;5.00;99.90;;;;;;6170938;23;20401;-89
2021/12/08 14:02:58;;;;;;;10.60;9.50;;;5.00;99.90;;;;;;6166475;23;20398;-88
2021/12/08 14:05:33;;;;;;;9.93;8.30;;;4.90;99.90;;;;;;6148500;23;20472;-88
2021/12/08 14:08:14;;;;;;;10.80;9.10;;;5.00;99.90;;;;;;6163125;23;20792;-88
2021/12/08 14:10:43;;;;;;;10.57;8.80;;;4.90;99.90;;;;;;6189337;23;20446;-88
2021/12/08 14:13:12;;;;;;;10.57;8.97;;;4.90;99.90;;;;;;6170982;23;20757;-88
2021/12/08 14:15:46;;;;;;;9.33;8.43;;;4.80;99.90;;;;;;6171779;23;20691;-88
2021/12/08 14:18:17;;;;;;;9.00;8.10;;;4.80;99.90;;;;;;6161253;23;20395;-88
2021/12/08 14:21:15;;;;;;;8.83;7.93;;;4.80;99.90;;;;;;6168005;23;20909;-87
2021/12/08 14:23:49;;;;;;;10.03;9.00;;;4.70;99.90;;;;;;6166689;23;20411;-88